sensor_id;sensor_type;location;lat;lon;timestamp;P1;durP1;ratioP1;P2;durP2;ratioP2
29908;SDS011;36247;51.952;6.146;2022-10-04T00:02:18;8.73;;;5.80;;
29908;SDS011;36247;51.952;6.146;2022-10-04T00:07:49;9.70;;;5.85;;
29908;SDS011;36247;51.952;6.146;2022-10-04T00:10:24;19.23;;;6.57;;
29908;SDS011;36247;51.952;6.146;2022-10-04T00:13:00;12.68;;;6.40;;
29908;SDS011;36247;51.952;6.146;2022-10-04T00:15:34;14.07;;;6.15;;
29908;SDS011;36247;51.952;6.146;2022-10-04T00:18:07;11.68;;;7.00;;
29908;SDS011;36247;51.952;6.146;2022-10-04T00:25:47;12.90;;;6.47;;
29908;SDS011;36247;51.952;6.146;2022-10-04T00:28:13;13.25;;;6.55;;
29908;SDS011;36247;51.952;6.146;2022-10-04T00:33:33;14.75;;;6.40;;
29908;SDS011;36247;51.952;6.146;2022-10-04T00:44:17;13.48;;;7.00;;
29908;SDS011;36247;51.952;6.146;2022-10-04T00:46:52;8.93;;;6.47;;
29908;SDS011;36247;51.952;6.146;2022-10-04T00:49:21;11.98;;;7.00;;
29908;SDS011;36247;51.952;6.146;2022-10-04T00:51:51;15.40;;;7.45;;
29908;SDS011;36247;51.952;6.146;2022-10-04T00:57:03;13.98;;;7.57;;
29908;SDS011;36247;51.952;6.146;2022-10-04T00:59:54;16.90;;;8.30;;
29908;SDS011;36247;51.952;6.146;2022-10-04T01:02:32;17.17;;;8.90;;
29908;SDS011;36247;51.952;6.146;2022-10-04T01:05:07;13.15;;;7.35;;
29908;SDS011;36247;51.952;6.146;2022-10-04T01:07:39;14.98;;;8.10;;
29908;SDS011;36247;51.952;6.146;2022-10-04T01:10:23;14.40;;;9.13;;
29908;SDS011;36247;51.952;6.146;2022-10-04T01:23:48;15.52;;;9.45;;
29908;SDS011;36247;51.952;6.146;2022-10-04T01:28:57;19.42;;;9.48;;
29908;SDS011;36247;51.952;6.146;2022-10-04T01:31:25;15.40;;;8.75;;
29908;SDS011;36247;51.952;6.146;2022-10-04T01:33:55;18.58;;;9.98;;
29908;SDS011;36247;51.952;6.146;2022-10-04T01:36:22;16.95;;;10.45;;
29908;SDS011;36247;51.952;6.146;2022-10-04T01:38:47;19.17;;;10.93;;
29908;SDS011;36247;51.952;6.146;2022-10-04T01:41:15;19.95;;;10.80;;
29908;SDS011;36247;51.952;6.146;2022-10-04T01:43:45;17.25;;;10.38;;
29908;SDS011;36247;51.952;6.146;2022-10-04T01:46:18;22.48;;;11.15;;
29908;SDS011;36247;51.952;6.146;2022-10-04T01:48:47;26.45;;;12.23;;
29908;SDS011;36247;51.952;6.146;2022-10-04T01:51:15;22.77;;;11.80;;
29908;SDS011;36247;51.952;6.146;2022-10-04T01:53:48;17.00;;;11.05;;
29908;SDS011;36247;51.952;6.146;2022-10-04T01:56:22;25.42;;;11.73;;
29908;SDS011;36247;51.952;6.146;2022-10-04T01:59:02;21.40;;;11.27;;
29908;SDS011;36247;51.952;6.146;2022-10-04T02:01:37;20.00;;;10.15;;
29908;SDS011;36247;51.952;6.146;2022-10-04T02:04:22;19.65;;;12.88;;
29908;SDS011;36247;51.952;6.146;2022-10-04T02:06:53;16.90;;;10.73;;
29908;SDS011;36247;51.952;6.146;2022-10-04T02:09:22;23.45;;;12.45;;
29908;SDS011;36247;51.952;6.146;2022-10-04T02:11:51;16.85;;;11.10;;
29908;SDS011;36247;51.952;6.146;2022-10-04T02:14:19;16.58;;;10.85;;
29908;SDS011;36247;51.952;6.146;2022-10-04T02:16:48;18.35;;;12.10;;
29908;SDS011;36247;51.952;6.146;2022-10-04T02:19:16;26.70;;;11.57;;
29908;SDS011;36247;51.952;6.146;2022-10-04T02:21:42;21.77;;;11.80;;
29908;SDS011;36247;51.952;6.146;2022-10-04T02:24:08;22.52;;;12.52;;
29908;SDS011;36247;51.952;6.146;2022-10-04T02:26:35;17.27;;;12.00;;
29908;SDS011;36247;51.952;6.146;2022-10-04T02:29:00;18.67;;;12.82;;
29908;SDS011;36247;51.952;6.146;2022-10-04T02:31:27;19.17;;;12.95;;
29908;SDS011;36247;51.952;6.146;2022-10-04T02:34:12;21.02;;;12.63;;
29908;SDS011;36247;51.952;6.146;2022-10-04T02:36:38;17.38;;;13.18;;
29908;SDS011;36247;51.952;6.146;2022-10-04T02:39:07;24.48;;;14.27;;
29908;SDS011;36247;51.952;6.146;2022-10-04T02:41:50;19.73;;;13.60;;
29908;SDS011;36247;51.952;6.146;2022-10-04T02:51:51;19.80;;;12.80;;
29908;SDS011;36247;51.952;6.146;2022-10-04T02:57:18;22.98;;;13.68;;
29908;SDS011;36247;51.952;6.146;2022-10-04T02:59:45;18.35;;;12.88;;
29908;SDS011;36247;51.952;6.146;2022-10-04T03:04:46;24.15;;;13.88;;
29908;SDS011;36247;51.952;6.146;2022-10-04T03:07:14;23.90;;;14.40;;
29908;SDS011;36247;51.952;6.146;2022-10-04T03:09:40;25.95;;;14.23;;
29908;SDS011;36247;51.952;6.146;2022-10-04T03:12:06;20.95;;;13.95;;
29908;SDS011;36247;51.952;6.146;2022-10-04T03:14:36;17.67;;;13.82;;
29908;SDS011;36247;51.952;6.146;2022-10-04T03:17:02;20.45;;;13.95;;
29908;SDS011;36247;51.952;6.146;2022-10-04T03:19:29;22.00;;;14.02;;
29908;SDS011;36247;51.952;6.146;2022-10-04T03:21:57;23.23;;;14.05;;
29908;SDS011;36247;51.952;6.146;2022-10-04T03:24:30;22.42;;;14.27;;
29908;SDS011;36247;51.952;6.146;2022-10-04T03:27:04;28.25;;;13.18;;
29908;SDS011;36247;51.952;6.146;2022-10-04T03:29:31;20.50;;;14.30;;
29908;SDS011;36247;51.952;6.146;2022-10-04T03:31:59;21.42;;;14.27;;
29908;SDS011;36247;51.952;6.146;2022-10-04T03:34:27;23.15;;;14.80;;
29908;SDS011;36247;51.952;6.146;2022-10-04T03:37:01;20.05;;;14.63;;
29908;SDS011;36247;51.952;6.146;2022-10-04T03:39:30;18.92;;;14.20;;
29908;SDS011;36247;51.952;6.146;2022-10-04T03:42:02;22.60;;;16.27;;
29908;SDS011;36247;51.952;6.146;2022-10-04T03:46:57;18.73;;;14.07;;
29908;SDS011;36247;51.952;6.146;2022-10-04T03:49:31;21.75;;;14.52;;
29908;SDS011;36247;51.952;6.146;2022-10-04T03:51:59;24.75;;;15.00;;
29908;SDS011;36247;51.952;6.146;2022-10-04T03:54:26;22.25;;;14.55;;
29908;SDS011;36247;51.952;6.146;2022-10-04T03:56:53;20.88;;;13.65;;
29908;SDS011;36247;51.952;6.146;2022-10-04T03:59:19;19.92;;;14.23;;
29908;SDS011;36247;51.952;6.146;2022-10-04T04:02:01;23.10;;;14.32;;
29908;SDS011;36247;51.952;6.146;2022-10-04T04:07:11;23.52;;;15.07;;
29908;SDS011;36247;51.952;6.146;2022-10-04T04:09:44;29.63;;;16.13;;
29908;SDS011;36247;51.952;6.146;2022-10-04T04:12:17;19.55;;;14.48;;
29908;SDS011;36247;51.952;6.146;2022-10-04T04:14:49;23.58;;;15.13;;
29908;SDS011;36247;51.952;6.146;2022-10-04T04:19:56;24.60;;;15.10;;
29908;SDS011;36247;51.952;6.146;2022-10-04T04:22:23;17.50;;;13.35;;
29908;SDS011;36247;51.952;6.146;2022-10-04T04:25:03;27.48;;;15.82;;
29908;SDS011;36247;51.952;6.146;2022-10-04T04:27:32;20.73;;;15.98;;
29908;SDS011;36247;51.952;6.146;2022-10-04T04:30:01;28.23;;;17.30;;
29908;SDS011;36247;51.952;6.146;2022-10-04T04:32:32;24.00;;;16.50;;
29908;SDS011;36247;51.952;6.146;2022-10-04T04:35:20;34.90;;;19.20;;
29908;SDS011;36247;51.952;6.146;2022-10-04T04:38:01;27.08;;;18.55;;
29908;SDS011;36247;51.952;6.146;2022-10-04T04:40:28;26.48;;;17.25;;
29908;SDS011;36247;51.952;6.146;2022-10-04T04:42:55;27.75;;;16.35;;
29908;SDS011;36247;51.952;6.146;2022-10-04T04:45:24;28.85;;;17.60;;
29908;SDS011;36247;51.952;6.146;2022-10-04T04:47:54;26.65;;;17.55;;
29908;SDS011;36247;51.952;6.146;2022-10-04T04:53:08;26.70;;;18.17;;
29908;SDS011;36247;51.952;6.146;2022-10-04T04:55:40;23.75;;;15.77;;
29908;SDS011;36247;51.952;6.146;2022-10-04T04:58:09;20.95;;;15.77;;
29908;SDS011;36247;51.952;6.146;2022-10-04T05:00:53;26.13;;;16.40;;
29908;SDS011;36247;51.952;6.146;2022-10-04T05:03:30;23.85;;;16.58;;
29908;SDS011;36247;51.952;6.146;2022-10-04T05:05:58;27.30;;;16.25;;
29908;SDS011;36247;51.952;6.146;2022-10-04T05:08:31;23.70;;;16.65;;
29908;SDS011;36247;51.952;6.146;2022-10-04T05:13:40;28.03;;;17.67;;
29908;SDS011;36247;51.952;6.146;2022-10-04T05:16:10;26.48;;;16.58;;
29908;SDS011;36247;51.952;6.146;2022-10-04T05:18:43;27.05;;;17.02;;
29908;SDS011;36247;51.952;6.146;2022-10-04T05:21:14;25.02;;;16.23;;
29908;SDS011;36247;51.952;6.146;2022-10-04T05:23:46;24.55;;;16.15;;
29908;SDS011;36247;51.952;6.146;2022-10-04T05:26:11;27.52;;;16.17;;
29908;SDS011;36247;51.952;6.146;2022-10-04T05:28:39;26.92;;;17.02;;
29908;SDS011;36247;51.952;6.146;2022-10-04T05:31:18;31.38;;;15.55;;
29908;SDS011;36247;51.952;6.146;2022-10-04T05:34:14;26.02;;;16.45;;
29908;SDS011;36247;51.952;6.146;2022-10-04T05:36:57;26.83;;;15.15;;
29908;SDS011;36247;51.952;6.146;2022-10-04T05:42:21;23.75;;;16.77;;
29908;SDS011;36247;51.952;6.146;2022-10-04T05:44:54;32.65;;;16.48;;
29908;SDS011;36247;51.952;6.146;2022-10-04T05:47:25;30.13;;;16.05;;
29908;SDS011;36247;51.952;6.146;2022-10-04T05:49:54;24.52;;;15.70;;
29908;SDS011;36247;51.952;6.146;2022-10-04T06:00:38;33.85;;;17.05;;
29908;SDS011;36247;51.952;6.146;2022-10-04T06:06:47;21.63;;;15.23;;
29908;SDS011;36247;51.952;6.146;2022-10-04T06:20:08;29.25;;;16.50;;
29908;SDS011;36247;51.952;6.146;2022-10-04T06:22:45;28.30;;;15.18;;
29908;SDS011;36247;51.952;6.146;2022-10-04T06:25:21;23.55;;;13.82;;
29908;SDS011;36247;51.952;6.146;2022-10-04T06:27:53;20.33;;;14.88;;
29908;SDS011;36247;51.952;6.146;2022-10-04T06:30:30;25.05;;;15.15;;
29908;SDS011;36247;51.952;6.146;2022-10-04T06:44:57;26.92;;;15.35;;
29908;SDS011;36247;51.952;6.146;2022-10-04T06:53:09;24.48;;;13.55;;
29908;SDS011;36247;51.952;6.146;2022-10-04T06:56:08;19.60;;;13.85;;
29908;SDS011;36247;51.952;6.146;2022-10-04T06:58:54;21.92;;;14.35;;
29908;SDS011;36247;51.952;6.146;2022-10-04T07:04:27;19.13;;;13.23;;
29908;SDS011;36247;51.952;6.146;2022-10-04T07:07:01;24.10;;;13.85;;
29908;SDS011;36247;51.952;6.146;2022-10-04T07:09:58;21.13;;;12.85;;
29908;SDS011;36247;51.952;6.146;2022-10-04T07:12:28;23.50;;;12.30;;
29908;SDS011;36247;51.952;6.146;2022-10-04T07:14:58;24.15;;;14.63;;
29908;SDS011;36247;51.952;6.146;2022-10-04T07:17:37;22.95;;;14.55;;
29908;SDS011;36247;51.952;6.146;2022-10-04T07:20:06;23.55;;;13.82;;
29908;SDS011;36247;51.952;6.146;2022-10-04T07:22:59;21.10;;;14.05;;
29908;SDS011;36247;51.952;6.146;2022-10-04T07:25:36;17.60;;;12.23;;
29908;SDS011;36247;51.952;6.146;2022-10-04T07:28:17;23.48;;;13.48;;
29908;SDS011;36247;51.952;6.146;2022-10-04T07:31:12;24.92;;;13.25;;
29908;SDS011;36247;51.952;6.146;2022-10-04T07:33:57;21.50;;;12.75;;
29908;SDS011;36247;51.952;6.146;2022-10-04T07:36:37;23.77;;;12.68;;
29908;SDS011;36247;51.952;6.146;2022-10-04T07:39:15;18.70;;;13.02;;
29908;SDS011;36247;51.952;6.146;2022-10-04T07:41:51;16.60;;;10.70;;
29908;SDS011;36247;51.952;6.146;2022-10-04T07:44:34;16.58;;;10.57;;
29908;SDS011;36247;51.952;6.146;2022-10-04T07:47:19;19.90;;;10.90;;
29908;SDS011;36247;51.952;6.146;2022-10-04T07:49:48;17.67;;;9.52;;
29908;SDS011;36247;51.952;6.146;2022-10-04T08:00:49;14.43;;;8.25;;
29908;SDS011;36247;51.952;6.146;2022-10-04T08:14:34;15.35;;;8.50;;
29908;SDS011;36247;51.952;6.146;2022-10-04T08:17:19;18.95;;;8.80;;
29908;SDS011;36247;51.952;6.146;2022-10-04T08:19:52;14.82;;;8.88;;
29908;SDS011;36247;51.952;6.146;2022-10-04T08:27:54;17.98;;;9.35;;
29908;SDS011;36247;51.952;6.146;2022-10-04T08:42:14;14.15;;;8.25;;
29908;SDS011;36247;51.952;6.146;2022-10-04T08:58:37;14.13;;;8.00;;
29908;SDS011;36247;51.952;6.146;2022-10-04T09:09:55;14.18;;;8.15;;
29908;SDS011;36247;51.952;6.146;2022-10-04T09:12:43;12.73;;;7.70;;
29908;SDS011;36247;51.952;6.146;2022-10-04T09:23:34;12.02;;;7.72;;
29908;SDS011;36247;51.952;6.146;2022-10-04T09:26:20;20.65;;;9.07;;
29908;SDS011;36247;51.952;6.146;2022-10-04T09:36:31;13.43;;;7.95;;
29908;SDS011;36247;51.952;6.146;2022-10-04T09:41:56;18.27;;;9.43;;
29908;SDS011;36247;51.952;6.146;2022-10-04T09:44:46;18.27;;;9.70;;
29908;SDS011;36247;51.952;6.146;2022-10-04T10:03:51;15.85;;;8.73;;
29908;SDS011;36247;51.952;6.146;2022-10-04T10:15:54;16.87;;;8.67;;
29908;SDS011;36247;51.952;6.146;2022-10-04T10:24:50;13.63;;;8.07;;
29908;SDS011;36247;51.952;6.146;2022-10-04T10:30:22;17.23;;;8.30;;
29908;SDS011;36247;51.952;6.146;2022-10-04T10:35:35;15.35;;;8.02;;
29908;SDS011;36247;51.952;6.146;2022-10-04T10:50:00;12.13;;;7.57;;
29908;SDS011;36247;51.952;6.146;2022-10-04T11:36:23;14.82;;;7.78;;
29908;SDS011;36247;51.952;6.146;2022-10-04T11:38:59;11.48;;;7.05;;
29908;SDS011;36247;51.952;6.146;2022-10-04T12:07:01;10.30;;;6.03;;
29908;SDS011;36247;51.952;6.146;2022-10-04T12:13:10;13.32;;;5.60;;
29908;SDS011;36247;51.952;6.146;2022-10-04T12:16:03;11.80;;;6.40;;
29908;SDS011;36247;51.952;6.146;2022-10-04T12:24:40;12.23;;;7.35;;
29908;SDS011;36247;51.952;6.146;2022-10-04T12:35:21;7.22;;;4.97;;
29908;SDS011;36247;51.952;6.146;2022-10-04T12:46:11;8.18;;;5.18;;
29908;SDS011;36247;51.952;6.146;2022-10-04T12:59:42;10.48;;;5.15;;
29908;SDS011;36247;51.952;6.146;2022-10-04T13:02:44;7.57;;;4.57;;
29908;SDS011;36247;51.952;6.146;2022-10-04T13:10:59;8.98;;;4.80;;
29908;SDS011;36247;51.952;6.146;2022-10-04T13:16:38;8.73;;;5.18;;
29908;SDS011;36247;51.952;6.146;2022-10-04T13:19:21;10.55;;;5.15;;
29908;SDS011;36247;51.952;6.146;2022-10-04T13:24:43;12.38;;;6.13;;
29908;SDS011;36247;51.952;6.146;2022-10-04T13:35:26;12.25;;;5.68;;
29908;SDS011;36247;51.952;6.146;2022-10-04T13:57:13;10.93;;;4.93;;
29908;SDS011;36247;51.952;6.146;2022-10-04T14:00:11;13.07;;;5.13;;
29908;SDS011;36247;51.952;6.146;2022-10-04T14:10:54;7.88;;;3.47;;
29908;SDS011;36247;51.952;6.146;2022-10-04T14:33:52;6.55;;;3.60;;
29908;SDS011;36247;51.952;6.146;2022-10-04T14:36:29;8.57;;;3.50;;
29908;SDS011;36247;51.952;6.146;2022-10-04T14:44:49;6.75;;;4.13;;
29908;SDS011;36247;51.952;6.146;2022-10-04T14:47:57;14.65;;;3.85;;
29908;SDS011;36247;51.952;6.146;2022-10-04T14:51:01;7.68;;;3.55;;
29908;SDS011;36247;51.952;6.146;2022-10-04T14:56:45;5.65;;;3.47;;
29908;SDS011;36247;51.952;6.146;2022-10-04T15:07:51;8.32;;;3.80;;
29908;SDS011;36247;51.952;6.146;2022-10-04T15:12:59;5.90;;;3.42;;
29908;SDS011;36247;51.952;6.146;2022-10-04T15:15:30;6.85;;;3.42;;
29908;SDS011;36247;51.952;6.146;2022-10-04T15:29:27;7.95;;;3.40;;
29908;SDS011;36247;51.952;6.146;2022-10-04T15:32:20;7.75;;;3.58;;
29908;SDS011;36247;51.952;6.146;2022-10-04T15:40:36;5.95;;;3.38;;
29908;SDS011;36247;51.952;6.146;2022-10-04T15:45:55;7.15;;;3.40;;
29908;SDS011;36247;51.952;6.146;2022-10-04T15:51:37;9.67;;;4.13;;
29908;SDS011;36247;51.952;6.146;2022-10-04T15:57:22;7.28;;;3.80;;
29908;SDS011;36247;51.952;6.146;2022-10-04T16:00:05;10.77;;;3.58;;
29908;SDS011;36247;51.952;6.146;2022-10-04T16:05:45;9.43;;;3.90;;
29908;SDS011;36247;51.952;6.146;2022-10-04T16:16:56;6.82;;;4.10;;
29908;SDS011;36247;51.952;6.146;2022-10-04T16:19:39;8.45;;;4.38;;
29908;SDS011;36247;51.952;6.146;2022-10-04T16:22:18;9.90;;;4.75;;
29908;SDS011;36247;51.952;6.146;2022-10-04T16:24:52;6.80;;;4.60;;
29908;SDS011;36247;51.952;6.146;2022-10-04T16:30:14;8.10;;;4.75;;
29908;SDS011;36247;51.952;6.146;2022-10-04T16:36:01;9.63;;;4.22;;
29908;SDS011;36247;51.952;6.146;2022-10-04T16:38:33;7.43;;;4.45;;
29908;SDS011;36247;51.952;6.146;2022-10-04T16:41:41;9.38;;;4.78;;
29908;SDS011;36247;51.952;6.146;2022-10-04T16:49:49;9.75;;;4.75;;
29908;SDS011;36247;51.952;6.146;2022-10-04T16:57:41;7.05;;;4.15;;
29908;SDS011;36247;51.952;6.146;2022-10-04T17:03:08;14.02;;;4.60;;
29908;SDS011;36247;51.952;6.146;2022-10-04T17:05:44;11.75;;;4.95;;
29908;SDS011;36247;51.952;6.146;2022-10-04T17:08:46;13.95;;;5.00;;
29908;SDS011;36247;51.952;6.146;2022-10-04T17:11:38;6.35;;;4.70;;
29908;SDS011;36247;51.952;6.146;2022-10-04T17:17:20;8.85;;;6.00;;
29908;SDS011;36247;51.952;6.146;2022-10-04T17:19:53;15.30;;;5.35;;
29908;SDS011;36247;51.952;6.146;2022-10-04T17:28:12;10.82;;;5.80;;
29908;SDS011;36247;51.952;6.146;2022-10-04T17:31:14;10.07;;;6.57;;
29908;SDS011;36247;51.952;6.146;2022-10-04T17:33:52;11.98;;;5.65;;
29908;SDS011;36247;51.952;6.146;2022-10-04T17:37:12;10.80;;;5.80;;
29908;SDS011;36247;51.952;6.146;2022-10-04T17:42:43;13.27;;;6.45;;
29908;SDS011;36247;51.952;6.146;2022-10-04T17:48:14;13.13;;;6.20;;
29908;SDS011;36247;51.952;6.146;2022-10-04T17:51:12;13.17;;;6.43;;
29908;SDS011;36247;51.952;6.146;2022-10-04T17:54:02;12.05;;;6.45;;
29908;SDS011;36247;51.952;6.146;2022-10-04T17:57:14;12.02;;;6.32;;
29908;SDS011;36247;51.952;6.146;2022-10-04T17:59:47;8.93;;;6.32;;
29908;SDS011;36247;51.952;6.146;2022-10-04T18:04:54;14.25;;;6.30;;
29908;SDS011;36247;51.952;6.146;2022-10-04T18:07:24;10.55;;;6.65;;
29908;SDS011;36247;51.952;6.146;2022-10-04T18:10:00;12.13;;;6.10;;
29908;SDS011;36247;51.952;6.146;2022-10-04T18:12:39;10.73;;;6.57;;
29908;SDS011;36247;51.952;6.146;2022-10-04T18:15:21;9.93;;;6.00;;
29908;SDS011;36247;51.952;6.146;2022-10-04T18:17:52;13.77;;;6.90;;
29908;SDS011;36247;51.952;6.146;2022-10-04T18:20:39;15.15;;;7.82;;
29908;SDS011;36247;51.952;6.146;2022-10-04T18:23:26;13.10;;;7.00;;
29908;SDS011;36247;51.952;6.146;2022-10-04T18:25:56;17.38;;;7.20;;
29908;SDS011;36247;51.952;6.146;2022-10-04T18:28:47;12.30;;;7.00;;
29908;SDS011;36247;51.952;6.146;2022-10-04T18:31:18;13.10;;;7.18;;
29908;SDS011;36247;51.952;6.146;2022-10-04T18:34:29;12.00;;;7.38;;
29908;SDS011;36247;51.952;6.146;2022-10-04T18:39:46;13.55;;;9.48;;
29908;SDS011;36247;51.952;6.146;2022-10-04T18:42:29;9.13;;;6.75;;
29908;SDS011;36247;51.952;6.146;2022-10-04T18:45:20;11.43;;;7.38;;
29908;SDS011;36247;51.952;6.146;2022-10-04T18:47:51;12.75;;;7.40;;
29908;SDS011;36247;51.952;6.146;2022-10-04T18:56:03;13.63;;;7.55;;
29908;SDS011;36247;51.952;6.146;2022-10-04T18:58:35;14.93;;;8.50;;
29908;SDS011;36247;51.952;6.146;2022-10-04T19:01:42;15.02;;;7.85;;
29908;SDS011;36247;51.952;6.146;2022-10-04T19:07:41;19.25;;;8.68;;
29908;SDS011;36247;51.952;6.146;2022-10-04T19:10:31;18.05;;;7.78;;
29908;SDS011;36247;51.952;6.146;2022-10-04T19:13:02;12.20;;;7.50;;
29908;SDS011;36247;51.952;6.146;2022-10-04T19:26:38;12.90;;;7.50;;
29908;SDS011;36247;51.952;6.146;2022-10-04T19:40:15;19.00;;;9.77;;
29908;SDS011;36247;51.952;6.146;2022-10-04T19:42:55;18.65;;;8.73;;
29908;SDS011;36247;51.952;6.146;2022-10-04T19:48:19;15.93;;;8.30;;
29908;SDS011;36247;51.952;6.146;2022-10-04T19:50:50;14.57;;;8.60;;
29908;SDS011;36247;51.952;6.146;2022-10-04T19:53:27;21.17;;;10.70;;
29908;SDS011;36247;51.952;6.146;2022-10-04T19:56:02;14.50;;;7.93;;
29908;SDS011;36247;51.952;6.146;2022-10-04T19:58:42;16.58;;;7.72;;
29908;SDS011;36247;51.952;6.146;2022-10-04T20:03:36;15.98;;;8.02;;
29908;SDS011;36247;51.952;6.146;2022-10-04T20:06:02;16.73;;;7.53;;
29908;SDS011;36247;51.952;6.146;2022-10-04T20:11:45;13.03;;;7.07;;
29908;SDS011;36247;51.952;6.146;2022-10-04T20:21:44;10.38;;;7.03;;
29908;SDS011;36247;51.952;6.146;2022-10-04T20:27:00;11.68;;;7.07;;
29908;SDS011;36247;51.952;6.146;2022-10-04T20:34:50;12.82;;;7.55;;
29908;SDS011;36247;51.952;6.146;2022-10-04T20:37:15;13.88;;;7.88;;
29908;SDS011;36247;51.952;6.146;2022-10-04T20:42:09;17.83;;;9.05;;
29908;SDS011;36247;51.952;6.146;2022-10-04T20:44:50;14.85;;;9.68;;
29908;SDS011;36247;51.952;6.146;2022-10-04T20:50:37;13.52;;;8.65;;
29908;SDS011;36247;51.952;6.146;2022-10-04T20:56:10;15.57;;;8.18;;
29908;SDS011;36247;51.952;6.146;2022-10-04T20:58:49;14.85;;;7.75;;
29908;SDS011;36247;51.952;6.146;2022-10-04T21:04:10;17.63;;;8.82;;
29908;SDS011;36247;51.952;6.146;2022-10-04T21:09:48;15.23;;;8.45;;
29908;SDS011;36247;51.952;6.146;2022-10-04T21:12:26;11.50;;;7.45;;
29908;SDS011;36247;51.952;6.146;2022-10-04T21:20:48;14.48;;;8.15;;
29908;SDS011;36247;51.952;6.146;2022-10-04T21:25:41;15.10;;;8.52;;
29908;SDS011;36247;51.952;6.146;2022-10-04T21:28:22;15.73;;;8.25;;
29908;SDS011;36247;51.952;6.146;2022-10-04T21:30:53;14.38;;;8.52;;
29908;SDS011;36247;51.952;6.146;2022-10-04T21:33:19;16.38;;;8.60;;
29908;SDS011;36247;51.952;6.146;2022-10-04T21:35:44;14.07;;;8.23;;
29908;SDS011;36247;51.952;6.146;2022-10-04T21:38:13;13.23;;;7.82;;
29908;SDS011;36247;51.952;6.146;2022-10-04T21:40:38;15.73;;;8.20;;
29908;SDS011;36247;51.952;6.146;2022-10-04T21:43:03;18.55;;;8.40;;
29908;SDS011;36247;51.952;6.146;2022-10-04T21:45:29;14.50;;;7.05;;
29908;SDS011;36247;51.952;6.146;2022-10-04T21:47:54;13.07;;;8.43;;
29908;SDS011;36247;51.952;6.146;2022-10-04T21:50:20;13.77;;;8.60;;
29908;SDS011;36247;51.952;6.146;2022-10-04T21:52:45;13.48;;;8.38;;
29908;SDS011;36247;51.952;6.146;2022-10-04T21:55:11;14.10;;;8.07;;
29908;SDS011;36247;51.952;6.146;2022-10-04T21:57:36;13.10;;;7.65;;
29908;SDS011;36247;51.952;6.146;2022-10-04T22:00:02;14.82;;;7.70;;
29908;SDS011;36247;51.952;6.146;2022-10-04T22:02:37;11.25;;;7.35;;
29908;SDS011;36247;51.952;6.146;2022-10-04T22:05:03;17.08;;;8.30;;
29908;SDS011;36247;51.952;6.146;2022-10-04T22:07:28;14.45;;;8.30;;
29908;SDS011;36247;51.952;6.146;2022-10-04T22:09:54;15.02;;;8.05;;
29908;SDS011;36247;51.952;6.146;2022-10-04T22:12:19;15.23;;;7.93;;
29908;SDS011;36247;51.952;6.146;2022-10-04T22:14:44;14.23;;;9.05;;
29908;SDS011;36247;51.952;6.146;2022-10-04T22:17:10;12.50;;;7.90;;
29908;SDS011;36247;51.952;6.146;2022-10-04T22:19:35;14.98;;;8.30;;
29908;SDS011;36247;51.952;6.146;2022-10-04T22:22:01;12.60;;;8.43;;
29908;SDS011;36247;51.952;6.146;2022-10-04T22:24:27;15.23;;;7.90;;
29908;SDS011;36247;51.952;6.146;2022-10-04T22:26:53;17.95;;;8.35;;
29908;SDS011;36247;51.952;6.146;2022-10-04T22:29:20;14.80;;;8.68;;
29908;SDS011;36247;51.952;6.146;2022-10-04T22:31:49;18.90;;;9.25;;
29908;SDS011;36247;51.952;6.146;2022-10-04T22:34:16;16.33;;;9.15;;
29908;SDS011;36247;51.952;6.146;2022-10-04T22:36:43;12.68;;;8.45;;
29908;SDS011;36247;51.952;6.146;2022-10-04T22:39:17;16.23;;;9.43;;
29908;SDS011;36247;51.952;6.146;2022-10-04T22:41:44;15.88;;;8.82;;
29908;SDS011;36247;51.952;6.146;2022-10-04T22:44:22;16.95;;;8.55;;
29908;SDS011;36247;51.952;6.146;2022-10-04T22:46:51;16.83;;;9.18;;
29908;SDS011;36247;51.952;6.146;2022-10-04T22:49:21;12.10;;;8.45;;
29908;SDS011;36247;51.952;6.146;2022-10-04T22:51:49;12.45;;;7.95;;
29908;SDS011;36247;51.952;6.146;2022-10-04T22:54:20;16.88;;;9.23;;
29908;SDS011;36247;51.952;6.146;2022-10-04T22:56:48;14.10;;;9.52;;
29908;SDS011;36247;51.952;6.146;2022-10-04T22:59:15;13.32;;;8.95;;
29908;SDS011;36247;51.952;6.146;2022-10-04T23:01:41;12.73;;;8.70;;
29908;SDS011;36247;51.952;6.146;2022-10-04T23:04:15;24.33;;;9.60;;
29908;SDS011;36247;51.952;6.146;2022-10-04T23:06:45;12.40;;;8.45;;
29908;SDS011;36247;51.952;6.146;2022-10-04T23:09:10;15.37;;;9.40;;
29908;SDS011;36247;51.952;6.146;2022-10-04T23:11:36;15.65;;;8.68;;
29908;SDS011;36247;51.952;6.146;2022-10-04T23:14:01;17.50;;;8.70;;
29908;SDS011;36247;51.952;6.146;2022-10-04T23:16:27;13.15;;;8.52;;
29908;SDS011;36247;51.952;6.146;2022-10-04T23:19:08;16.45;;;9.05;;
29908;SDS011;36247;51.952;6.146;2022-10-04T23:21:37;13.77;;;9.05;;
29908;SDS011;36247;51.952;6.146;2022-10-04T23:24:21;13.85;;;9.15;;
29908;SDS011;36247;51.952;6.146;2022-10-04T23:26:48;18.48;;;8.75;;
29908;SDS011;36247;51.952;6.146;2022-10-04T23:29:22;14.88;;;8.52;;
29908;SDS011;36247;51.952;6.146;2022-10-04T23:31:50;12.77;;;8.25;;
29908;SDS011;36247;51.952;6.146;2022-10-04T23:36:57;13.45;;;9.23;;
29908;SDS011;36247;51.952;6.146;2022-10-04T23:39:32;14.00;;;8.23;;
29908;SDS011;36247;51.952;6.146;2022-10-04T23:41:59;14.23;;;9.05;;
29908;SDS011;36247;51.952;6.146;2022-10-04T23:44:33;12.13;;;8.48;;
29908;SDS011;36247;51.952;6.146;2022-10-04T23:47:01;17.60;;;8.88;;
29908;SDS011;36247;51.952;6.146;2022-10-04T23:49:33;15.45;;;8.85;;
29908;SDS011;36247;51.952;6.146;2022-10-04T23:52:00;15.35;;;8.45;;
29908;SDS011;36247;51.952;6.146;2022-10-04T23:54:27;13.25;;;8.85;;
29908;SDS011;36247;51.952;6.146;2022-10-04T23:56:53;13.50;;;8.40;;
29908;SDS011;36247;51.952;6.146;2022-10-04T23:59:19;13.32;;;8.60;;
